createdAt,value
2024-02-04T00:00:06.679Z,57.45
2024-02-04T00:02:34.122Z,57.62
2024-02-04T00:05:00.801Z,57.55
2024-02-04T00:07:28.116Z,57.40
2024-02-04T00:09:54.799Z,57.23
2024-02-04T00:12:22.611Z,57.31
2024-02-04T00:14:50.963Z,57.09
2024-02-04T00:17:17.827Z,56.94
2024-02-04T00:19:44.424Z,56.95
2024-02-04T00:22:11.162Z,57.02
2024-02-04T00:24:37.922Z,56.70
2024-02-04T00:27:04.755Z,57.03
2024-02-04T00:29:31.404Z,58.14
2024-02-04T00:31:57.984Z,57.62
2024-02-04T00:34:24.654Z,57.20
2024-02-04T00:36:51.308Z,57.08
2024-02-04T00:39:17.966Z,57.01
2024-02-04T00:41:44.553Z,56.82
2024-02-04T00:44:11.118Z,56.75
2024-02-04T00:46:37.686Z,56.66
2024-02-04T00:49:04.495Z,56.63
2024-02-04T00:51:31.406Z,56.29
2024-02-04T00:53:58.038Z,56.72
2024-02-04T00:56:24.621Z,56.86
2024-02-04T00:58:51.208Z,58.06
2024-02-04T01:01:18.427Z,58.03
2024-02-04T01:03:45.264Z,57.33
2024-02-04T01:06:11.983Z,57.06
2024-02-04T01:08:38.940Z,56.86
2024-02-04T01:11:06.837Z,56.90
2024-02-04T01:13:33.783Z,56.54
2024-02-04T01:16:00.546Z,56.58
2024-02-04T01:18:27.368Z,56.87
2024-02-04T01:20:54.011Z,56.77
2024-02-04T01:23:21.117Z,56.64
2024-02-04T01:25:47.806Z,56.30
2024-02-04T01:28:14.456Z,56.42
2024-02-04T01:30:41.082Z,56.43
2024-02-04T01:33:07.860Z,56.31
2024-02-04T01:35:34.512Z,56.58
2024-02-04T01:38:01.141Z,57.62
2024-02-04T01:40:27.732Z,56.72
2024-02-04T01:42:54.393Z,56.38
2024-02-04T01:45:21.073Z,56.43
2024-02-04T01:47:47.842Z,56.52
2024-02-04T01:50:15.580Z,56.57
2024-02-04T01:52:43.772Z,56.38
2024-02-04T01:55:10.645Z,56.32
2024-02-04T01:57:37.551Z,56.26
2024-02-04T02:00:05.549Z,56.50
2024-02-04T02:02:35.399Z,56.41
2024-02-04T02:05:02.502Z,56.48
2024-02-04T02:07:29.536Z,57.55
2024-02-04T02:09:56.501Z,56.76
2024-02-04T02:12:40.769Z,56.35
2024-02-04T02:15:15.362Z,56.42
2024-02-04T02:17:58.771Z,56.45
2024-02-04T02:20:37.716Z,57.07
2024-02-04T02:23:04.247Z,56.54
2024-02-04T02:25:32.558Z,56.50
2024-02-04T02:27:59.138Z,56.10
2024-02-04T02:30:25.976Z,56.03
2024-02-04T02:32:52.796Z,56.10
2024-02-04T02:35:20.701Z,56.14
2024-02-04T02:38:11.888Z,57.27
2024-02-04T02:40:46.503Z,57.57
2024-02-04T02:43:14.607Z,57.38
2024-02-04T02:45:43.777Z,56.41
2024-02-04T02:48:12.134Z,56.40
2024-02-04T02:50:39.396Z,56.45
2024-02-04T02:53:06.484Z,56.31
2024-02-04T02:55:33.103Z,56.62
2024-02-04T02:57:59.963Z,56.34
2024-02-04T03:00:26.739Z,57.10
2024-02-04T03:02:53.410Z,57.09
2024-02-04T03:05:20.123Z,56.37
2024-02-04T03:07:46.694Z,56.15
2024-02-04T03:10:13.598Z,56.37
2024-02-04T03:12:40.364Z,57.14
2024-02-04T03:15:07.242Z,57.24
2024-02-04T03:17:35.254Z,57.61
2024-02-04T03:20:02.169Z,56.70
2024-02-04T03:22:28.962Z,56.32
2024-02-04T03:24:55.610Z,56.30
2024-02-04T03:27:22.372Z,56.52
2024-02-04T03:29:49.041Z,56.21
2024-02-04T03:32:15.648Z,56.14
2024-02-04T03:34:42.739Z,56.18
2024-02-04T03:37:09.539Z,56.58
2024-02-04T03:39:36.251Z,56.14
2024-02-04T03:42:02.873Z,55.82
2024-02-04T03:44:29.431Z,55.91
2024-02-04T03:46:55.988Z,56.16
2024-02-04T03:49:22.698Z,55.60
2024-02-04T03:51:49.377Z,55.68
2024-02-04T03:54:16.031Z,55.83
2024-02-04T03:56:42.726Z,55.62
2024-02-04T03:59:12.052Z,56.93
2024-02-04T04:01:39.283Z,56.75
2024-02-04T04:04:06.626Z,56.09
2024-02-04T04:06:33.367Z,55.99
2024-02-04T04:09:00.509Z,55.91
2024-02-04T04:11:27.297Z,55.60
2024-02-04T04:13:53.951Z,55.55
2024-02-04T04:16:23.877Z,55.53
2024-02-04T04:18:51.127Z,55.59
2024-02-04T04:21:18.139Z,55.53
2024-02-04T04:23:46.192Z,55.37
2024-02-04T04:26:12.846Z,55.29
2024-02-04T04:28:39.411Z,55.32
2024-02-04T04:31:06.211Z,55.43
2024-02-04T04:33:33.090Z,55.89
2024-02-04T04:35:59.953Z,55.72
2024-02-04T04:38:26.541Z,56.29
2024-02-04T04:40:53.267Z,56.37
2024-02-04T04:43:20.063Z,55.60
2024-02-04T04:45:46.794Z,55.42
2024-02-04T04:48:13.587Z,55.46
2024-02-04T04:50:40.235Z,55.51
2024-02-04T04:53:06.829Z,55.48
2024-02-04T04:55:33.434Z,55.51
2024-02-04T04:58:00.149Z,56.51
2024-02-04T05:00:26.855Z,55.53
2024-02-04T05:02:53.480Z,55.76
2024-02-04T05:05:20.141Z,55.80
2024-02-04T05:07:48.215Z,56.69
2024-02-04T05:10:15.122Z,55.84
2024-02-04T05:12:42.078Z,55.83
2024-02-04T05:15:09.502Z,55.85
2024-02-04T05:17:36.529Z,55.69
2024-02-04T05:20:06.289Z,55.59
2024-02-04T05:22:32.836Z,55.46
2024-02-04T05:24:59.872Z,55.64
2024-02-04T05:27:27.226Z,55.90
2024-02-04T05:29:53.929Z,56.73
2024-02-04T05:32:20.530Z,56.16
2024-02-04T05:34:47.314Z,55.60
2024-02-04T05:37:17.385Z,55.48
2024-02-04T05:39:44.013Z,55.73
2024-02-04T05:42:10.638Z,56.25
2024-02-04T05:44:37.267Z,55.66
2024-02-04T05:47:04.024Z,55.57
2024-02-04T05:49:30.798Z,55.69
2024-02-04T05:51:57.461Z,55.55
2024-02-04T05:54:24.472Z,55.66
2024-02-04T05:56:51.089Z,55.43
2024-02-04T05:59:17.821Z,55.59
2024-02-04T06:01:45.935Z,56.65
2024-02-04T06:04:12.903Z,57.01
2024-02-04T06:06:39.735Z,56.64
2024-02-04T06:09:06.486Z,56.32
2024-02-04T06:11:33.094Z,55.79
2024-02-04T06:13:59.644Z,55.98
2024-02-04T06:16:27.360Z,56.00
2024-02-04T06:18:57.052Z,56.03
2024-02-04T06:21:23.957Z,57.08
2024-02-04T06:23:50.554Z,57.21
2024-02-04T06:26:17.118Z,56.41
2024-02-04T06:28:47.475Z,56.03
2024-02-04T06:31:14.835Z,56.08
2024-02-04T06:33:41.665Z,56.20
2024-02-04T06:36:11.953Z,56.17
2024-02-04T06:38:38.590Z,56.34
2024-02-04T06:41:05.365Z,55.95
2024-02-04T06:43:35.561Z,56.01
2024-02-04T06:46:03.866Z,55.62
2024-02-04T06:48:30.651Z,55.43
2024-02-04T06:50:57.342Z,55.71
2024-02-04T06:53:23.957Z,56.80
2024-02-04T06:55:50.513Z,56.60
2024-02-04T06:58:17.072Z,55.95
2024-02-04T07:00:43.790Z,55.79
2024-02-04T07:03:11.024Z,55.82
2024-02-04T07:05:38.594Z,55.66
2024-02-04T07:08:05.364Z,56.32
2024-02-04T07:10:32.005Z,56.61
2024-02-04T07:12:58.638Z,55.91
2024-02-04T07:15:25.867Z,55.83
2024-02-04T07:17:52.642Z,55.60
2024-02-04T07:20:19.990Z,55.44
2024-02-04T07:22:46.784Z,55.65
2024-02-04T07:25:13.480Z,56.18
2024-02-04T07:27:40.163Z,55.67
2024-02-04T07:30:07.424Z,55.53
2024-02-04T07:32:35.692Z,56.50
2024-02-04T07:35:03.092Z,56.74
2024-02-04T07:37:29.994Z,56.39
2024-02-04T07:39:56.700Z,55.82
2024-02-04T07:42:23.591Z,55.57
2024-02-04T07:44:50.183Z,55.60
2024-02-04T07:47:17.277Z,55.77
2024-02-04T07:49:44.044Z,56.24
2024-02-04T07:52:10.818Z,56.62
2024-02-04T07:54:37.486Z,56.71
2024-02-04T07:57:04.324Z,56.06
2024-02-04T07:59:30.947Z,55.76
2024-02-04T08:01:57.602Z,55.91
2024-02-04T08:04:24.363Z,56.08
2024-02-04T08:06:51.205Z,55.87
2024-02-04T08:09:17.986Z,55.87
2024-02-04T08:11:44.598Z,55.56
2024-02-04T08:14:11.194Z,55.55
2024-02-04T08:16:37.766Z,55.56
2024-02-04T08:19:07.173Z,56.40
2024-02-04T08:21:34.004Z,56.96
2024-02-04T08:24:00.616Z,56.58
2024-02-04T08:26:27.255Z,56.08
2024-02-04T08:28:53.873Z,55.82
2024-02-04T08:31:20.822Z,56.62
2024-02-04T08:33:47.662Z,56.33
2024-02-04T08:36:14.270Z,56.02
2024-02-04T08:38:42.244Z,55.90
2024-02-04T08:41:09.011Z,55.91
2024-02-04T08:43:37.688Z,56.16
2024-02-04T08:46:10.875Z,55.94
2024-02-04T08:48:40.680Z,55.82
2024-02-04T08:51:12.739Z,55.73
2024-02-04T08:53:39.333Z,55.67
2024-02-04T08:56:09.743Z,55.67
2024-02-04T08:58:38.290Z,55.63
2024-02-04T09:01:06.193Z,55.70
2024-02-04T09:03:34.250Z,55.99
2024-02-04T09:06:01.024Z,56.06
2024-02-04T09:08:27.604Z,56.07
2024-02-04T09:10:54.159Z,55.68
2024-02-04T09:13:20.884Z,55.96
2024-02-04T09:15:47.791Z,55.81
2024-02-04T09:18:14.618Z,55.82
2024-02-04T09:20:41.377Z,56.01
2024-02-04T09:23:08.043Z,56.39
2024-02-04T09:25:34.950Z,56.22
2024-02-04T09:28:01.818Z,55.90
2024-02-04T09:30:28.606Z,55.90
2024-02-04T09:32:55.508Z,55.67
2024-02-04T09:35:22.477Z,55.92
2024-02-04T09:37:49.464Z,55.73
2024-02-04T09:40:16.237Z,56.07
2024-02-04T09:42:43.111Z,55.97
2024-02-04T09:45:11.030Z,56.00
2024-02-04T09:47:39.922Z,56.06
2024-02-04T09:50:07.158Z,55.89
2024-02-04T09:52:38.128Z,56.17
2024-02-04T09:55:08.102Z,55.97
2024-02-04T09:57:36.217Z,55.90
2024-02-04T10:00:05.922Z,56.04
2024-02-04T10:02:33.674Z,55.98
2024-02-04T10:05:00.695Z,56.05
2024-02-04T10:07:27.988Z,56.11
2024-02-04T10:09:54.897Z,55.97
2024-02-04T10:12:21.816Z,56.30
2024-02-04T10:14:50.496Z,56.34
2024-02-04T10:17:17.473Z,56.31
2024-02-04T10:19:44.266Z,56.31
2024-02-04T10:22:11.723Z,56.46
2024-02-04T10:24:38.391Z,56.33
2024-02-04T10:27:05.356Z,56.38
2024-02-04T10:29:32.096Z,56.54
2024-02-04T10:31:59.120Z,56.47
2024-02-04T10:34:31.234Z,56.41
2024-02-04T10:36:58.274Z,56.55
2024-02-04T10:39:24.947Z,56.21
2024-02-04T10:41:53.698Z,56.75
2024-02-04T10:44:25.410Z,56.84
2024-02-04T10:46:55.047Z,56.81
2024-02-04T10:49:22.775Z,56.81
2024-02-04T10:51:51.570Z,56.95
2024-02-04T10:54:22.070Z,56.92
2024-02-04T10:56:57.383Z,56.64
2024-02-04T10:59:25.855Z,56.75
2024-02-04T11:01:53.046Z,56.84
2024-02-04T11:04:20.104Z,57.01
2024-02-04T11:06:47.479Z,56.82
2024-02-04T11:09:17.391Z,56.66
2024-02-04T11:11:44.987Z,56.43
2024-02-04T11:14:15.545Z,56.89
2024-02-04T11:16:56.267Z,56.63
2024-02-04T11:19:56.512Z,56.67
2024-02-04T11:22:35.032Z,56.46
2024-02-04T11:25:34.496Z,56.52
2024-02-04T11:28:01.510Z,56.47
2024-02-04T11:30:28.580Z,56.55
2024-02-04T11:32:55.388Z,56.63
2024-02-04T11:35:24.037Z,56.61
2024-02-04T11:37:51.314Z,56.35
2024-02-04T11:40:22.266Z,56.44
2024-02-04T11:42:49.038Z,56.43
2024-02-04T11:45:16.216Z,56.28
2024-02-04T11:47:43.056Z,56.30
2024-02-04T11:50:12.036Z,56.22
2024-02-04T11:52:40.698Z,56.44
2024-02-04T11:55:08.608Z,56.35
2024-02-04T11:57:36.155Z,56.34
2024-02-04T12:00:06.824Z,56.42
2024-02-04T12:02:34.273Z,56.17
2024-02-04T12:05:01.764Z,56.17
2024-02-04T12:07:30.988Z,56.14
2024-02-04T12:09:58.347Z,56.21
2024-02-04T12:12:26.209Z,56.12
2024-02-04T12:14:54.074Z,56.27
2024-02-04T12:17:21.635Z,56.18
2024-02-04T12:19:48.344Z,56.13
2024-02-04T12:22:15.237Z,56.25
2024-02-04T12:24:42.003Z,56.11
2024-02-04T12:27:08.799Z,55.98
2024-02-04T12:29:35.629Z,56.19
2024-02-04T12:32:04.848Z,56.23
2024-02-04T12:34:33.491Z,56.08
2024-02-04T12:37:04.053Z,56.05
2024-02-04T12:39:34.085Z,56.19
2024-02-04T12:42:01.120Z,56.36
2024-02-04T12:44:27.791Z,56.06
2024-02-04T12:46:54.708Z,56.03
2024-02-04T12:49:26.252Z,55.88
2024-02-04T12:51:57.317Z,55.92
2024-02-04T12:54:24.123Z,56.02
2024-02-04T12:56:51.812Z,55.90
2024-02-04T12:59:44.480Z,55.79
2024-02-04T13:02:14.920Z,55.76
2024-02-04T13:04:44.303Z,55.84
2024-02-04T13:07:15.107Z,55.72
2024-02-04T13:09:42.851Z,55.72
2024-02-04T13:12:10.891Z,55.90
2024-02-04T13:14:42.536Z,55.78
2024-02-04T13:17:09.212Z,55.55
2024-02-04T13:19:37.817Z,55.85
2024-02-04T13:22:10.925Z,55.88
2024-02-04T13:24:38.387Z,55.72
2024-02-04T13:27:06.837Z,55.62
2024-02-04T13:29:33.429Z,55.72
2024-02-04T13:32:00.224Z,55.51
2024-02-04T13:34:26.980Z,55.71
2024-02-04T13:36:53.701Z,55.86
2024-02-04T13:39:20.303Z,53.90
2024-02-04T13:41:46.905Z,54.51
2024-02-04T13:44:13.635Z,54.29
2024-02-04T13:46:44.160Z,54.30
2024-02-04T13:49:13.570Z,54.26
2024-02-04T13:51:44.640Z,54.40
2024-02-04T13:54:16.445Z,54.57
2024-02-04T13:56:43.806Z,54.57
2024-02-04T13:59:10.369Z,54.58
2024-02-04T14:01:37.085Z,54.83
2024-02-04T14:04:04.057Z,54.61
2024-02-04T14:06:30.992Z,54.89
2024-02-04T14:08:57.587Z,54.89
2024-02-04T14:11:24.203Z,54.72
2024-02-04T14:13:50.755Z,55.07
2024-02-04T14:16:17.462Z,55.05
2024-02-04T14:18:47.482Z,55.25
2024-02-04T14:21:17.541Z,55.25
2024-02-04T14:23:44.390Z,55.25
2024-02-04T14:26:18.765Z,55.34
2024-02-04T14:28:45.390Z,55.23
2024-02-04T14:31:12.080Z,55.49
2024-02-04T14:33:38.921Z,55.34
2024-02-04T14:36:05.950Z,55.40
2024-02-04T14:38:32.978Z,55.30
2024-02-04T14:40:59.930Z,55.30
2024-02-04T14:43:26.992Z,55.45
2024-02-04T14:45:53.608Z,55.68
2024-02-04T14:48:20.360Z,55.51
2024-02-04T14:50:48.336Z,55.63
2024-02-04T14:53:15.139Z,55.68
2024-02-04T14:55:41.775Z,55.93
2024-02-04T14:58:08.399Z,55.71
2024-02-04T15:00:35.152Z,55.56
2024-02-04T15:03:01.875Z,55.57
2024-02-04T15:05:28.583Z,55.77
2024-02-04T15:07:58.248Z,55.84
2024-02-04T15:10:24.887Z,55.91
2024-02-04T15:12:53.756Z,56.28
2024-02-04T15:15:21.203Z,55.96
2024-02-04T15:17:48.187Z,55.89
2024-02-04T15:20:19.188Z,56.00
2024-02-04T15:22:46.616Z,55.96
2024-02-04T15:25:16.000Z,56.01
2024-02-04T15:27:45.702Z,55.79
2024-02-04T15:30:13.906Z,56.00
2024-02-04T15:32:40.845Z,56.13
2024-02-04T15:35:08.304Z,55.90
2024-02-04T15:37:34.957Z,56.12
2024-02-04T15:40:01.875Z,56.26
2024-02-04T15:42:28.613Z,56.15
2024-02-04T15:44:55.202Z,56.05
2024-02-04T15:47:24.160Z,56.17
2024-02-04T15:49:51.159Z,56.07
2024-02-04T15:52:18.154Z,56.08
2024-02-04T15:54:45.025Z,56.14
2024-02-04T15:57:14.256Z,56.18
2024-02-04T15:59:40.857Z,56.34
2024-02-04T16:02:11.533Z,56.26
2024-02-04T16:04:38.683Z,56.42
2024-02-04T16:07:06.088Z,56.34
2024-02-04T16:09:33.000Z,56.44
2024-02-04T16:12:06.856Z,56.42
2024-02-04T16:14:38.171Z,56.47
2024-02-04T16:17:05.733Z,56.65
2024-02-04T16:19:33.357Z,56.69
2024-02-04T16:22:00.010Z,56.83
2024-02-04T16:24:26.706Z,56.85
2024-02-04T16:26:53.449Z,57.17
2024-02-04T16:29:20.047Z,57.06
2024-02-04T16:31:46.613Z,57.04
2024-02-04T16:34:13.313Z,57.08
2024-02-04T16:36:40.027Z,57.41
2024-02-04T16:39:06.827Z,57.45
2024-02-04T16:41:33.484Z,57.43
2024-02-04T16:44:00.031Z,57.55
2024-02-04T16:46:26.587Z,57.59
2024-02-04T16:48:53.328Z,57.53
2024-02-04T16:51:19.978Z,57.69
2024-02-04T16:53:47.410Z,57.71
2024-02-04T16:56:19.754Z,57.71
2024-02-04T16:58:46.335Z,57.76
2024-02-04T17:01:13.018Z,57.85
2024-02-04T17:03:40.111Z,57.86
2024-02-04T17:06:09.390Z,57.92
2024-02-04T17:08:36.572Z,57.98
2024-02-04T17:11:03.404Z,57.99
2024-02-04T17:13:30.185Z,57.88
2024-02-04T17:15:57.196Z,58.14
2024-02-04T17:18:46.025Z,58.03
2024-02-04T17:21:14.292Z,57.94
2024-02-04T17:23:42.135Z,57.97
2024-02-04T17:26:10.196Z,57.93
2024-02-04T17:28:37.154Z,57.95
2024-02-04T17:31:04.097Z,58.09
2024-02-04T17:33:31.134Z,58.11
2024-02-04T17:35:57.809Z,57.96
2024-02-04T17:38:24.703Z,58.22
2024-02-04T17:40:51.274Z,58.16
2024-02-04T17:43:18.947Z,58.16
2024-02-04T17:45:45.639Z,58.00
2024-02-04T17:48:12.423Z,57.97
2024-02-04T17:50:38.992Z,58.21
2024-02-04T17:53:07.665Z,58.32
2024-02-04T17:55:36.101Z,58.19
2024-02-04T17:58:04.504Z,58.04
2024-02-04T18:00:31.606Z,58.01
2024-02-04T18:02:58.995Z,57.85
2024-02-04T18:05:25.860Z,58.10
2024-02-04T18:07:54.166Z,58.13
2024-02-04T18:10:22.274Z,58.21
2024-02-04T18:12:49.099Z,57.90
2024-02-04T18:15:15.836Z,58.08
2024-02-04T18:17:44.098Z,58.01
2024-02-04T18:20:13.069Z,58.25
2024-02-04T18:22:39.738Z,58.15
2024-02-04T18:25:11.650Z,57.93
2024-02-04T18:27:43.134Z,58.13
2024-02-04T18:30:12.348Z,58.32
2024-02-04T18:32:39.199Z,58.08
2024-02-04T18:35:06.566Z,58.16
2024-02-04T18:37:33.634Z,58.19
2024-02-04T18:40:00.630Z,58.01
2024-02-04T18:42:27.734Z,57.93
2024-02-04T18:44:55.581Z,57.95
2024-02-04T18:47:22.572Z,58.09
2024-02-04T18:49:49.309Z,57.90
2024-02-04T18:52:16.057Z,58.05
2024-02-04T18:54:42.719Z,58.12
2024-02-04T18:57:09.702Z,57.96
2024-02-04T18:59:36.990Z,58.07
2024-02-04T19:02:03.900Z,57.90
2024-02-04T19:04:30.855Z,58.00
2024-02-04T19:07:00.669Z,58.08
2024-02-04T19:09:27.694Z,57.96
2024-02-04T19:11:54.300Z,57.86
2024-02-04T19:14:23.064Z,58.05
2024-02-04T19:16:49.718Z,57.91
2024-02-04T19:19:16.418Z,57.96
2024-02-04T19:21:44.576Z,57.99
2024-02-04T19:24:11.189Z,58.20
2024-02-04T19:26:37.822Z,58.09
2024-02-04T19:29:04.422Z,58.03
2024-02-04T19:31:31.001Z,57.92
2024-02-04T19:33:57.787Z,58.07
2024-02-04T19:36:24.463Z,57.96
2024-02-04T19:38:51.068Z,58.04
2024-02-04T19:41:17.679Z,57.88
2024-02-04T19:43:44.271Z,57.92
2024-02-04T19:46:10.911Z,58.05
2024-02-04T19:48:37.700Z,57.72
2024-02-04T19:51:05.104Z,57.95
2024-02-04T19:53:31.759Z,57.82
2024-02-04T19:55:58.529Z,57.90
2024-02-04T19:58:25.162Z,57.62
2024-02-04T20:00:51.848Z,57.88
2024-02-04T20:03:18.583Z,57.95
2024-02-04T20:05:45.424Z,57.93
2024-02-04T20:08:12.016Z,57.75
2024-02-04T20:10:38.581Z,57.73
2024-02-04T20:13:05.300Z,57.84
2024-02-04T20:15:32.140Z,57.89
2024-02-04T20:17:59.739Z,57.81
2024-02-04T20:20:27.845Z,57.54
2024-02-04T20:22:57.155Z,57.51
2024-02-04T20:25:28.667Z,57.99
2024-02-04T20:27:57.252Z,57.71
2024-02-04T20:30:30.003Z,57.60
2024-02-04T20:32:57.909Z,57.87
2024-02-04T20:35:28.981Z,57.90
2024-02-04T20:38:02.024Z,57.79
2024-02-04T20:40:28.746Z,57.45
2024-02-04T20:42:55.626Z,57.47
2024-02-04T20:45:22.570Z,57.75
2024-02-04T20:47:50.372Z,57.85
2024-02-04T20:50:17.707Z,57.68
2024-02-04T20:52:44.628Z,57.78
2024-02-04T20:55:11.413Z,57.69
2024-02-04T20:57:39.018Z,57.69
2024-02-04T21:00:08.033Z,57.96
2024-02-04T21:02:35.041Z,58.01
2024-02-04T21:05:01.858Z,57.84
2024-02-04T21:07:28.810Z,57.78
2024-02-04T21:09:55.610Z,57.53
2024-02-04T21:12:23.355Z,57.87
2024-02-04T21:14:50.232Z,57.60
2024-02-04T21:17:16.804Z,57.78
2024-02-04T21:19:43.610Z,57.75
2024-02-04T21:22:10.288Z,57.51
2024-02-04T21:24:37.011Z,57.90
2024-02-04T21:27:03.967Z,57.81
2024-02-04T21:29:30.548Z,57.77
2024-02-04T21:31:57.424Z,57.54
2024-02-04T21:34:24.154Z,57.40
2024-02-04T21:36:50.966Z,57.70
2024-02-04T21:39:19.425Z,57.74
2024-02-04T21:41:46.146Z,57.71
2024-02-04T21:44:14.399Z,57.61
2024-02-04T21:46:47.145Z,57.56
2024-02-04T21:49:14.066Z,57.77
2024-02-04T21:51:40.859Z,57.64
2024-02-04T21:54:07.474Z,57.71
2024-02-04T21:56:34.158Z,57.59
2024-02-04T21:59:01.554Z,57.36
2024-02-04T22:01:28.343Z,57.73
2024-02-04T22:03:55.095Z,57.77
2024-02-04T22:06:21.768Z,57.51
2024-02-04T22:08:49.043Z,57.50
2024-02-04T22:11:16.160Z,57.77
2024-02-04T22:13:42.715Z,57.81
2024-02-04T22:16:10.041Z,57.34
2024-02-04T22:18:36.823Z,57.11
2024-02-04T22:21:04.507Z,57.33
2024-02-04T22:23:31.616Z,57.70
2024-02-04T22:25:58.249Z,57.37
2024-02-04T22:28:24.857Z,57.51
2024-02-04T22:30:51.740Z,57.62
2024-02-04T22:33:18.477Z,57.29
2024-02-04T22:35:45.046Z,57.19
2024-02-04T22:38:11.766Z,57.40
2024-02-04T22:40:38.352Z,57.50
2024-02-04T22:43:05.621Z,57.42
2024-02-04T22:45:32.366Z,57.36
2024-02-04T22:47:58.987Z,57.05
2024-02-04T22:50:25.648Z,57.32
2024-02-04T22:52:52.791Z,57.24
2024-02-04T22:55:19.590Z,57.21
2024-02-04T22:57:46.311Z,57.58
2024-02-04T23:00:27.636Z,57.64
2024-02-04T23:02:58.916Z,57.43
2024-02-04T23:05:26.456Z,57.20
2024-02-04T23:07:57.254Z,56.98
2024-02-04T23:10:25.805Z,56.88
2024-02-04T23:12:52.646Z,57.54
2024-02-04T23:15:20.422Z,57.38
2024-02-04T23:17:47.088Z,57.16
2024-02-04T23:20:13.784Z,57.09
2024-02-04T23:22:40.666Z,56.99
2024-02-04T23:25:07.835Z,57.50
2024-02-04T23:27:34.580Z,57.18
2024-02-04T23:30:01.558Z,57.13
2024-02-04T23:32:28.160Z,57.07
2024-02-04T23:34:55.347Z,57.00
2024-02-04T23:37:22.101Z,56.71
2024-02-04T23:39:48.721Z,57.00
2024-02-04T23:42:15.368Z,56.88
2024-02-04T23:44:41.959Z,56.85
2024-02-04T23:47:08.600Z,56.74
2024-02-04T23:49:35.227Z,56.68
2024-02-04T23:52:02.227Z,56.77
2024-02-04T23:54:28.819Z,56.48
2024-02-04T23:56:55.403Z,56.79
2024-02-04T23:59:22.040Z,56.66
